Terminal Aerodrome Forecast
Issued by NWS

Home | Current Version | Previous Version | Text Only | Print | Product List | Glossary On
Versions: 1 2 3 4 5 6 7 8 9 10 11 12 13 14 15 16 17 18 19 20 21 22 23 24 25 26 27 28 29 30 31 32 33 34 35 36 37
000
FTUS46 KOTX 211742 CCA
TAFMWH
TAF COR
KMWH 211742Z 2118/2218 17005KT P6SM FEW002
     FM211900 21008KT P6SM FEW050
     FM220100 17006KT P6SM SCT200
     FM220700 15007KT P6SM FEW120 SCT150 OVC200
     FM221000 15009KT P6SM BKN100 OVC150
     FM221600 16011KT P6SM VCSH BKN080 OVC100=

USA.gov is the U.S. government's official web portal to all federal, state and local government web resources and services.